logo
Search for airport 
image banner adimage banner adimage banner ad
image banner ad

AGGY - Yandina / Russell Islands

Located in Yandina, Solomon Islands

ICAO - AGGY, IATA - XYA

Data provided by Airmate  

General information

Coordinates: S9°5'36" E159°13'6"
Elevation is 66 feet MSL.
 
View others Airports in Central

Operational data

Special qualification required
Current time UTC:
Current local time:
Weather at : - ( 0 km )
METAR: KAFP 152017Z AUTO 21005KT 10SM -RA CLR 31/23 A2997 RMK AO2 T03070227
View NOTAMs / SUP AIP / TFR affecting this airport [VIEW]
Communications frequencies: [VIEW]

Runways:

RWY identifierQFULength (ft)Width (ft)SurfaceLDA (ft)
12305198UNK
30305198UNK

Airport contact information

Address: Yandina Solomon Islands

Satellite view of AGGY